createdAt,value
2022-12-04T00:04:47.444Z,1.29
2022-12-04T00:09:49.115Z,1.34
2022-12-04T00:15:23.846Z,1.31
2022-12-04T00:20:12.302Z,0.85
2022-12-04T00:25:13.969Z,1.05
2022-12-04T00:30:15.626Z,1.11
2022-12-04T00:35:17.335Z,1.22
2022-12-04T00:40:18.959Z,1.31
2022-12-04T00:45:20.668Z,1.35
2022-12-04T00:50:22.337Z,1.29
2022-12-04T00:55:25.240Z,1.14
2022-12-04T01:00:28.591Z,1.16
2022-12-04T01:05:30.393Z,1.17
2022-12-04T01:10:31.997Z,1.27
2022-12-04T01:15:33.667Z,1.20
2022-12-04T01:20:35.359Z,1.30
2022-12-04T01:25:36.977Z,1.10
2022-12-04T01:30:38.597Z,1.16
2022-12-04T01:35:40.180Z,1.19
2022-12-04T01:40:44.400Z,1.05
2022-12-04T01:45:51.070Z,0.97
2022-12-04T01:50:56.567Z,1.18
2022-12-04T01:55:58.212Z,1.14
2022-12-04T02:01:08.457Z,1.12
2022-12-04T02:06:10.854Z,1.07
2022-12-04T02:11:44.671Z,1.08
2022-12-04T02:17:11.166Z,1.14
2022-12-04T02:22:48.545Z,1.16
2022-12-04T02:28:17.768Z,1.19
2022-12-04T02:33:23.702Z,1.08
2022-12-04T02:38:33.269Z,1.16
2022-12-04T02:44:25.927Z,1.03
2022-12-04T02:49:36.321Z,0.96
2022-12-04T02:54:42.431Z,1.21
2022-12-04T02:59:47.461Z,1.04
2022-12-04T03:04:51.959Z,1.04
2022-12-04T03:10:02.943Z,0.98
2022-12-04T03:15:10.643Z,1.11
2022-12-04T03:20:14.859Z,1.27
2022-12-04T03:25:16.481Z,1.22
2022-12-04T03:30:21.875Z,1.21
2022-12-04T03:35:29.244Z,1.26
2022-12-04T03:40:52.539Z,1.36
2022-12-04T03:46:09.550Z,1.19
2022-12-04T03:51:19.567Z,1.03
2022-12-04T03:56:29.439Z,1.14
2022-12-04T04:01:38.662Z,1.36
2022-12-04T04:06:47.416Z,1.38
2022-12-04T04:11:57.169Z,1.48
2022-12-04T04:17:26.761Z,1.54
2022-12-04T04:22:50.401Z,1.49
2022-12-04T04:27:57.046Z,1.27
2022-12-04T04:33:08.345Z,1.41
2022-12-04T04:38:12.617Z,1.30
2022-12-04T04:43:37.082Z,1.20
2022-12-04T04:48:46.654Z,0.98
2022-12-04T04:53:52.424Z,0.97
2022-12-04T04:58:54.076Z,0.96
2022-12-04T05:03:55.651Z,1.11
2022-12-04T05:08:57.363Z,1.14
2022-12-04T05:13:58.993Z,1.15
2022-12-04T05:19:19.513Z,1.15
2022-12-04T05:24:21.110Z,1.18
2022-12-04T05:29:22.719Z,1.24
2022-12-04T05:34:24.371Z,0.97
2022-12-04T05:39:25.946Z,0.90
2022-12-04T05:44:27.548Z,0.80
2022-12-04T05:49:30.286Z,0.74
2022-12-04T05:54:32.293Z,0.76
2022-12-04T05:59:34.188Z,0.94
2022-12-04T06:04:37.316Z,0.85
2022-12-04T06:09:39.019Z,0.63
2022-12-04T06:14:40.610Z,0.76
2022-12-04T06:19:42.193Z,0.70
2022-12-04T06:24:43.790Z,0.86
2022-12-04T06:29:45.402Z,1.01
2022-12-04T06:34:49.401Z,0.68
2022-12-04T06:39:51.386Z,0.42
2022-12-04T06:44:53.154Z,0.50
2022-12-04T06:49:55.072Z,0.59
2022-12-04T06:54:56.838Z,0.67
2022-12-04T06:59:58.662Z,0.72
2022-12-04T07:05:00.331Z,0.72
2022-12-04T07:10:03.405Z,0.84
2022-12-04T07:15:05.503Z,0.93
2022-12-04T07:20:07.554Z,0.93
2022-12-04T07:25:09.751Z,0.66
2022-12-04T07:30:15.640Z,0.68
2022-12-04T07:35:17.710Z,0.80
2022-12-04T07:40:19.386Z,1.08
2022-12-04T07:45:21.210Z,0.71
2022-12-04T07:50:23.025Z,0.68
2022-12-04T07:55:24.620Z,0.79
2022-12-04T08:00:26.266Z,1.06
2022-12-04T08:05:27.884Z,0.99
2022-12-04T08:10:29.496Z,0.96
2022-12-04T08:15:31.139Z,1.08
2022-12-04T08:20:32.869Z,1.05
2022-12-04T08:25:34.511Z,1.14
2022-12-04T08:30:36.297Z,1.31
2022-12-04T08:35:37.977Z,1.38
2022-12-04T08:40:39.544Z,1.48
2022-12-04T08:45:41.133Z,1.31
2022-12-04T08:50:45.890Z,1.22
2022-12-04T08:55:47.575Z,1.38
2022-12-04T09:00:49.784Z,1.16
2022-12-04T09:05:51.430Z,1.14
2022-12-04T09:10:53.018Z,1.44
2022-12-04T09:15:54.670Z,1.37
2022-12-04T09:20:58.582Z,1.35
2022-12-04T09:26:00.221Z,1.39
2022-12-04T09:31:04.613Z,1.46
2022-12-04T09:36:06.619Z,1.58
2022-12-04T09:41:36.169Z,1.51
2022-12-04T09:46:42.833Z,1.71
2022-12-04T09:51:45.198Z,1.72
2022-12-04T09:56:54.938Z,1.79
2022-12-04T10:02:31.541Z,1.77
2022-12-04T10:07:54.470Z,1.61
2022-12-04T10:13:14.898Z,1.51
2022-12-04T10:18:22.417Z,1.53
2022-12-04T10:23:51.852Z,1.47
2022-12-04T10:29:01.190Z,1.60
2022-12-04T10:34:14.154Z,1.77
2022-12-04T10:39:25.389Z,1.88
2022-12-04T10:44:26.950Z,1.38
2022-12-04T10:49:30.733Z,1.61
2022-12-04T10:55:00.974Z,1.70
2022-12-04T11:00:22.714Z,1.66
2022-12-04T11:05:32.181Z,1.84
2022-12-04T11:10:33.758Z,1.93
2022-12-04T11:15:43.135Z,2.02
2022-12-04T11:20:51.081Z,2.14
2022-12-04T11:26:05.218Z,2.35
2022-12-04T11:31:09.496Z,2.33
2022-12-04T11:36:22.049Z,2.23
2022-12-04T11:41:29.270Z,2.41
2022-12-04T11:46:34.999Z,2.43
2022-12-04T11:51:49.084Z,2.00
2022-12-04T11:56:59.590Z,1.96
2022-12-04T12:02:38.280Z,2.17
2022-12-04T12:08:02.410Z,2.42
2022-12-04T12:13:18.178Z,2.58
2022-12-04T12:18:38.086Z,2.29
2022-12-04T12:23:44.890Z,2.12
2022-12-04T12:29:04.589Z,2.20
2022-12-04T12:34:15.584Z,2.19
2022-12-04T12:39:26.055Z,2.38
2022-12-04T12:44:41.991Z,2.59
2022-12-04T12:49:54.214Z,2.37
2022-12-04T12:55:02.604Z,2.35
2022-12-04T13:00:07.816Z,2.25
2022-12-04T13:05:13.523Z,2.42
2022-12-04T13:10:48.064Z,2.31
2022-12-04T13:16:19.763Z,2.23
2022-12-04T13:21:47.513Z,2.25
2022-12-04T13:27:07.793Z,2.04
2022-12-04T13:32:44.506Z,2.21
2022-12-04T13:38:10.637Z,2.26
2022-12-04T13:43:23.918Z,2.55
2022-12-04T13:48:30.973Z,2.60
2022-12-04T13:53:37.870Z,2.57
2022-12-04T13:58:39.471Z,2.55
2022-12-04T14:03:50.499Z,2.45
2022-12-04T14:08:58.774Z,2.74
2022-12-04T14:14:06.517Z,2.89
2022-12-04T14:19:26.773Z,2.64
2022-12-04T14:24:31.862Z,2.68
2022-12-04T14:29:52.050Z,2.63
2022-12-04T14:34:55.161Z,2.63
2022-12-04T14:39:58.645Z,2.69
2022-12-04T14:45:02.629Z,2.63
2022-12-04T14:50:29.862Z,2.66
2022-12-04T14:55:52.587Z,2.61
2022-12-04T15:00:56.813Z,2.52
2022-12-04T15:06:12.067Z,2.61
2022-12-04T15:11:39.339Z,2.90
2022-12-04T15:16:41.034Z,2.93
2022-12-04T15:21:42.761Z,2.70
2022-12-04T15:26:44.516Z,2.96
2022-12-04T15:31:53.475Z,2.95
2022-12-04T15:37:18.661Z,2.75
2022-12-04T15:42:30.431Z,2.86
2022-12-04T15:47:54.210Z,2.87
2022-12-04T15:53:13.703Z,2.76
2022-12-04T15:58:33.297Z,2.83
2022-12-04T16:03:46.153Z,2.73
2022-12-04T16:08:53.611Z,2.71
2022-12-04T16:14:15.548Z,2.77
2022-12-04T16:19:39.137Z,2.84
2022-12-04T16:24:41.008Z,3.06
2022-12-04T16:29:42.875Z,2.99
2022-12-04T16:34:44.671Z,2.96
2022-12-04T16:39:46.795Z,2.92
2022-12-04T16:44:48.944Z,2.68
2022-12-04T16:49:51.989Z,2.67
2022-12-04T16:54:53.704Z,2.72
2022-12-04T16:59:55.666Z,2.77
2022-12-04T17:04:58.252Z,2.75
2022-12-04T17:09:59.945Z,2.50
2022-12-04T17:15:01.554Z,2.64
2022-12-04T17:20:03.588Z,2.62
2022-12-04T17:25:06.147Z,2.63
2022-12-04T17:30:08.699Z,2.59
2022-12-04T17:35:12.647Z,2.64
2022-12-04T17:40:14.753Z,2.64
2022-12-04T17:45:17.056Z,2.62
2022-12-04T17:50:18.662Z,2.44
2022-12-04T17:55:20.278Z,2.62
2022-12-04T18:00:21.967Z,2.66
2022-12-04T18:05:23.697Z,2.77
2022-12-04T18:10:25.371Z,2.86
2022-12-04T18:15:26.974Z,2.82
2022-12-04T18:20:28.572Z,2.78
2022-12-04T18:25:30.179Z,2.75
2022-12-04T18:30:33.653Z,2.73
2022-12-04T18:35:35.309Z,2.65
2022-12-04T18:40:36.981Z,2.63
2022-12-04T18:45:38.644Z,2.57
2022-12-04T18:50:43.425Z,2.64
2022-12-04T18:55:45.029Z,2.40
2022-12-04T19:00:47.210Z,2.25
2022-12-04T19:05:51.903Z,2.24
2022-12-04T19:10:53.583Z,2.27
2022-12-04T19:15:55.189Z,2.32
2022-12-04T19:20:57.435Z,2.21
2022-12-04T19:26:00.661Z,2.27
2022-12-04T19:31:02.262Z,2.48
2022-12-04T19:36:05.888Z,2.54
2022-12-04T19:41:17.988Z,2.63
2022-12-04T19:46:26.942Z,2.77
2022-12-04T19:51:32.611Z,2.80
2022-12-04T19:56:35.521Z,2.87
2022-12-04T20:01:37.364Z,2.96
2022-12-04T20:06:44.841Z,3.09
2022-12-04T20:11:46.791Z,3.19
2022-12-04T20:16:48.653Z,3.06
2022-12-04T20:21:56.153Z,2.91
2022-12-04T20:27:00.989Z,2.79
2022-12-04T20:32:02.661Z,2.88
2022-12-04T20:37:04.298Z,2.89
2022-12-04T20:42:05.914Z,2.86
2022-12-04T20:47:07.553Z,2.91
2022-12-04T20:52:09.171Z,3.03
2022-12-04T20:57:10.990Z,3.11
2022-12-04T21:02:13.082Z,3.20
2022-12-04T21:07:14.726Z,3.24
2022-12-04T21:12:39.896Z,3.32
2022-12-04T21:17:44.679Z,3.31
2022-12-04T21:22:46.300Z,3.33
2022-12-04T21:27:47.956Z,3.27
2022-12-04T21:32:49.546Z,3.31
2022-12-04T21:37:51.152Z,3.31
2022-12-04T21:42:52.784Z,3.22
2022-12-04T21:47:54.378Z,3.17
2022-12-04T21:52:56.060Z,3.16
2022-12-04T21:57:57.644Z,3.15
2022-12-04T22:02:59.733Z,3.16
2022-12-04T22:08:01.486Z,3.20
2022-12-04T22:13:03.250Z,3.25
2022-12-04T22:18:06.212Z,3.29
2022-12-04T22:23:08.831Z,3.33
2022-12-04T22:28:10.440Z,3.26
2022-12-04T22:33:12.043Z,3.27
2022-12-04T22:38:14.003Z,3.23
2022-12-04T22:43:16.750Z,3.07
2022-12-04T22:48:18.348Z,3.14
2022-12-04T22:53:20.065Z,3.16
2022-12-04T22:58:22.425Z,3.17
2022-12-04T23:03:24.624Z,3.13
2022-12-04T23:08:26.582Z,3.11
2022-12-04T23:13:28.241Z,3.10
2022-12-04T23:18:29.957Z,3.04
2022-12-04T23:23:32.637Z,2.97
2022-12-04T23:28:35.189Z,2.96
2022-12-04T23:33:37.521Z,2.95
2022-12-04T23:38:40.283Z,2.92
2022-12-04T23:43:42.662Z,2.84
2022-12-04T23:48:45.438Z,2.80
2022-12-04T23:53:48.213Z,2.77
2022-12-04T23:58:52.449Z,2.70
